createdAt,value
2023-03-07T00:02:53.311Z,99405.47
2023-03-07T00:06:10.524Z,99404.81
2023-03-07T00:09:05.688Z,99365.59
2023-03-07T00:12:45.412Z,99334.50
2023-03-07T00:15:59.576Z,99297.22
2023-03-07T00:18:48.929Z,99366.56
2023-03-07T00:25:04.292Z,99400.69
2023-03-07T00:27:52.080Z,99397.34
2023-03-07T00:30:45.496Z,99402.53
2023-03-07T00:33:33.784Z,99403.13
2023-03-07T00:36:23.171Z,99389.53
2023-03-07T00:39:11.395Z,99354.34
2023-03-07T00:41:59.088Z,99382.72
2023-03-07T00:44:46.897Z,99378.31
2023-03-07T00:47:44.939Z,99374.44
2023-03-07T00:50:34.453Z,99353.59
2023-03-07T00:53:25.398Z,99378.06
2023-03-07T00:56:24.723Z,99355.91
2023-03-07T00:59:12.357Z,99357.06
2023-03-07T01:02:00.191Z,99354.41
2023-03-07T01:04:47.951Z,99343.00
2023-03-07T01:07:35.656Z,99363.91
2023-03-07T01:10:23.392Z,99362.00
2023-03-07T01:13:12.514Z,99368.19
2023-03-07T01:16:21.202Z,99367.28
2023-03-07T01:19:12.842Z,99367.28
2023-03-07T01:22:01.476Z,99368.81
2023-03-07T01:24:52.574Z,99372.69
2023-03-07T01:27:40.725Z,99351.03
2023-03-07T01:30:28.712Z,99362.22
2023-03-07T01:33:16.818Z,99354.50
2023-03-07T01:36:05.632Z,99357.94
2023-03-07T01:39:02.831Z,99338.00
2023-03-07T01:41:50.770Z,99355.91
2023-03-07T01:45:08.527Z,99360.97
2023-03-07T01:48:09.247Z,99361.06
2023-03-07T01:50:57.144Z,99353.31
2023-03-07T01:53:46.079Z,99320.34
2023-03-07T01:56:35.879Z,99359.16
2023-03-07T01:59:33.603Z,99336.34
2023-03-07T02:02:23.100Z,99326.44
2023-03-07T02:05:15.869Z,99320.63
2023-03-07T02:08:03.526Z,99339.97
2023-03-07T02:10:54.192Z,99322.06
2023-03-07T02:13:42.110Z,99342.41
2023-03-07T02:16:30.143Z,99340.00
2023-03-07T02:19:51.912Z,99328.81
2023-03-07T02:22:41.222Z,99336.25
2023-03-07T02:25:34.853Z,99338.41
2023-03-07T02:28:23.285Z,99345.94
2023-03-07T02:31:11.825Z,99342.06
2023-03-07T02:34:02.183Z,99344.38
2023-03-07T02:36:57.190Z,99341.16
2023-03-07T02:39:46.681Z,99341.97
2023-03-07T02:42:39.308Z,99344.59
2023-03-07T02:45:31.150Z,99344.81
2023-03-07T02:48:19.096Z,99346.28
2023-03-07T02:51:06.825Z,99350.28
2023-03-07T02:53:54.781Z,99342.31
2023-03-07T02:56:42.929Z,99347.53
2023-03-07T02:59:30.647Z,99349.13
2023-03-07T03:02:18.377Z,99347.84
2023-03-07T03:05:07.337Z,99354.69
2023-03-07T03:07:55.290Z,99358.66
2023-03-07T03:10:44.070Z,99347.81
2023-03-07T03:13:32.948Z,99367.38
2023-03-07T03:16:20.708Z,99356.72
2023-03-07T03:19:08.949Z,99365.44
2023-03-07T03:21:57.490Z,99357.66
2023-03-07T03:24:49.116Z,99362.41
2023-03-07T03:27:39.449Z,99362.81
2023-03-07T03:30:33.013Z,99356.03
2023-03-07T03:33:22.184Z,99371.19
2023-03-07T03:36:13.410Z,99370.38
2023-03-07T03:39:02.084Z,99353.78
2023-03-07T03:41:50.726Z,99375.84
2023-03-07T03:44:41.750Z,99370.31
2023-03-07T03:47:29.473Z,99363.47
2023-03-07T03:50:17.770Z,99375.28
2023-03-07T03:53:05.682Z,99365.19
2023-03-07T03:56:06.233Z,99350.13
2023-03-07T03:58:56.720Z,99366.91
2023-03-07T04:01:44.734Z,99336.88
2023-03-07T04:04:32.674Z,99371.19
2023-03-07T04:07:20.443Z,99367.69
2023-03-07T04:10:09.753Z,99372.16
2023-03-07T04:12:57.611Z,99329.72
2023-03-07T04:15:46.044Z,99376.00
2023-03-07T04:18:35.280Z,99363.53
2023-03-07T04:21:23.246Z,99373.66
2023-03-07T04:24:14.355Z,99352.50
2023-03-07T04:27:02.318Z,99369.53
2023-03-07T04:29:50.303Z,99352.75
2023-03-07T04:32:42.875Z,99386.50
2023-03-07T04:35:30.905Z,99395.81
2023-03-07T04:38:18.781Z,99358.66
2023-03-07T04:41:07.734Z,99393.53
2023-03-07T04:43:55.840Z,99394.19
2023-03-07T04:46:45.158Z,99390.19
2023-03-07T04:49:33.082Z,99398.19
2023-03-07T04:52:23.948Z,99401.09
2023-03-07T04:55:13.803Z,99404.00
2023-03-07T04:58:02.363Z,99398.56
2023-03-07T05:00:50.706Z,99366.69
2023-03-07T05:03:43.216Z,99390.03
2023-03-07T05:07:41.719Z,99306.84
2023-03-07T05:10:31.769Z,99397.16
2023-03-07T05:13:20.146Z,99394.00
2023-03-07T05:16:08.320Z,99401.69
2023-03-07T05:18:56.838Z,99366.00
2023-03-07T05:21:44.830Z,99400.75
2023-03-07T05:24:36.439Z,99384.25
2023-03-07T05:27:25.460Z,99394.16
2023-03-07T05:38:08.653Z,99337.75
2023-03-07T05:40:59.040Z,99404.19
2023-03-07T05:43:52.657Z,99410.53
2023-03-07T05:46:40.465Z,99413.25
2023-03-07T05:49:28.241Z,99430.72
2023-03-07T05:52:16.045Z,99402.31
2023-03-07T05:55:04.738Z,99405.91
2023-03-07T05:57:54.338Z,99417.34
2023-03-07T06:00:42.100Z,99401.84
2023-03-07T06:03:33.307Z,99403.06
2023-03-07T06:06:20.993Z,99374.50
2023-03-07T06:09:08.674Z,99400.84
2023-03-07T06:11:56.513Z,99395.63
2023-03-07T06:14:44.093Z,99390.16
2023-03-07T06:17:31.868Z,99362.34
2023-03-07T06:20:24.066Z,99404.47
2023-03-07T06:23:14.707Z,99400.78
2023-03-07T06:26:03.929Z,99422.59
2023-03-07T06:28:52.078Z,99423.75
2023-03-07T06:31:40.305Z,99434.03
2023-03-07T06:34:28.378Z,99426.00
2023-03-07T06:37:17.258Z,99413.66
2023-03-07T06:40:06.536Z,99425.09
2023-03-07T06:42:56.484Z,99412.41
2023-03-07T06:45:44.278Z,99428.41
2023-03-07T06:48:35.033Z,99415.78
2023-03-07T06:51:25.572Z,99401.09
2023-03-07T06:54:16.274Z,99407.47
2023-03-07T06:57:04.233Z,99408.25
2023-03-07T06:59:52.398Z,99395.91
2023-03-07T07:02:40.285Z,99412.19
2023-03-07T07:05:28.521Z,99425.69
2023-03-07T07:08:16.736Z,99419.34
2023-03-07T07:11:05.009Z,99426.47
2023-03-07T07:13:52.929Z,99419.34
2023-03-07T07:16:43.375Z,99403.09
2023-03-07T07:19:32.080Z,99408.19
2023-03-07T07:22:20.287Z,99420.47
2023-03-07T07:25:11.450Z,99430.31
2023-03-07T07:27:59.111Z,99396.63
2023-03-07T07:30:46.879Z,99414.38
2023-03-07T07:33:36.566Z,99418.56
2023-03-07T07:36:25.719Z,99399.94
2023-03-07T07:39:15.447Z,99417.56
2023-03-07T07:42:05.404Z,99414.38
2023-03-07T07:45:06.260Z,99410.19
2023-03-07T07:47:54.046Z,99392.38
2023-03-07T07:50:43.060Z,99419.75
2023-03-07T07:53:32.214Z,99406.81
2023-03-07T07:56:20.006Z,99420.31
2023-03-07T07:59:07.838Z,99415.41
2023-03-07T08:01:55.635Z,99415.19
2023-03-07T08:04:43.452Z,99430.25
2023-03-07T08:07:31.933Z,99407.63
2023-03-07T08:10:19.764Z,99377.88
2023-03-07T08:13:08.135Z,99416.53
2023-03-07T08:15:55.800Z,99415.03
2023-03-07T08:18:49.075Z,99405.34
2023-03-07T08:21:36.755Z,99413.78
2023-03-07T08:24:38.580Z,99405.63
2023-03-07T08:27:37.803Z,99407.78
2023-03-07T08:30:27.714Z,99413.44
2023-03-07T08:33:15.579Z,99329.06
2023-03-07T08:36:04.092Z,99408.69
2023-03-07T08:38:52.726Z,99403.41
2023-03-07T08:41:40.362Z,99408.09
2023-03-07T08:44:28.062Z,99405.94
2023-03-07T08:47:15.849Z,99409.28
2023-03-07T08:50:04.655Z,99399.03
2023-03-07T08:52:52.372Z,99395.72
2023-03-07T08:55:40.207Z,99392.13
2023-03-07T08:58:27.948Z,99391.16
2023-03-07T09:01:15.608Z,99395.88
2023-03-07T09:04:05.365Z,99392.72
2023-03-07T09:06:53.187Z,99390.38
2023-03-07T09:09:40.861Z,99377.72
2023-03-07T09:12:28.688Z,99371.28
2023-03-07T09:15:18.780Z,99357.72
2023-03-07T09:18:10.177Z,99364.34
2023-03-07T09:21:01.389Z,99338.75
2023-03-07T09:23:49.674Z,99352.59
2023-03-07T09:26:37.384Z,99361.69
2023-03-07T09:29:25.321Z,99344.72
2023-03-07T09:32:13.094Z,99359.75
2023-03-07T09:35:01.861Z,99356.69
2023-03-07T09:37:51.710Z,99359.63
2023-03-07T09:40:39.821Z,99364.56
2023-03-07T09:43:44.362Z,99351.28
2023-03-07T09:47:12.161Z,99364.72
2023-03-07T09:50:02.848Z,99360.28
2023-03-07T09:52:53.994Z,99337.34
2023-03-07T09:55:42.574Z,99346.63
2023-03-07T09:58:30.318Z,99354.72
2023-03-07T10:01:24.521Z,99346.63
2023-03-07T10:04:21.701Z,99351.53
2023-03-07T10:07:10.492Z,99317.66
2023-03-07T10:10:02.215Z,99343.13
2023-03-07T10:13:16.111Z,99339.66
2023-03-07T10:16:34.538Z,99344.00
2023-03-07T10:19:43.987Z,99304.59
2023-03-07T10:23:01.332Z,99329.34
2023-03-07T10:25:58.200Z,99314.38
2023-03-07T10:28:48.448Z,99315.31
2023-03-07T10:31:42.019Z,99272.91
2023-03-07T10:34:32.606Z,99316.78
2023-03-07T10:37:22.212Z,99312.16
2023-03-07T10:40:26.609Z,99297.53
2023-03-07T10:43:21.608Z,99317.47
2023-03-07T10:46:26.823Z,99310.47
2023-03-07T10:49:22.548Z,99308.31
2023-03-07T10:52:36.426Z,99299.63
2023-03-07T10:55:44.600Z,99288.25
2023-03-07T10:58:32.309Z,99291.84
2023-03-07T11:01:21.009Z,99288.41
2023-03-07T11:04:22.216Z,99257.47
2023-03-07T11:07:30.534Z,99276.22
2023-03-07T11:10:36.574Z,99265.16
2023-03-07T11:13:24.848Z,99255.22
2023-03-07T11:16:23.440Z,99266.84
2023-03-07T11:19:35.292Z,99258.41
2023-03-07T11:22:28.988Z,99254.97
2023-03-07T11:25:26.076Z,99249.56
2023-03-07T11:28:34.480Z,99242.81
2023-03-07T11:31:34.359Z,99236.88
2023-03-07T11:34:28.065Z,99236.44
2023-03-07T11:37:46.853Z,99249.09
2023-03-07T11:40:56.694Z,99207.63
2023-03-07T11:43:52.447Z,99231.09
2023-03-07T11:47:05.093Z,99219.50
2023-03-07T11:50:17.850Z,99219.66
2023-03-07T11:53:36.353Z,99215.34
2023-03-07T11:56:32.748Z,99198.06
2023-03-07T11:59:48.491Z,99166.28
2023-03-07T12:02:48.412Z,99193.28
2023-03-07T12:05:42.343Z,99171.47
2023-03-07T12:08:48.108Z,99205.59
2023-03-07T12:12:17.803Z,99203.69
2023-03-07T12:15:33.654Z,99202.59
2023-03-07T12:18:46.664Z,99187.03
2023-03-07T12:22:02.991Z,99166.44
2023-03-07T12:24:50.614Z,99194.88
2023-03-07T12:27:46.249Z,99193.44
2023-03-07T12:30:37.695Z,99196.69
2023-03-07T12:33:54.873Z,99187.25
2023-03-07T12:36:45.381Z,99180.81
2023-03-07T12:39:51.225Z,99188.25
2023-03-07T12:42:56.321Z,99188.91
2023-03-07T12:45:50.291Z,99185.81
2023-03-07T12:48:59.100Z,99180.09
2023-03-07T12:51:54.335Z,99172.53
2023-03-07T12:54:52.900Z,99180.91
2023-03-07T12:57:46.288Z,99175.50
2023-03-07T13:00:40.484Z,99175.78
2023-03-07T13:03:54.196Z,99165.69
2023-03-07T13:06:43.415Z,99176.47
2023-03-07T13:09:33.657Z,99162.63
2023-03-07T13:12:24.117Z,99180.88
2023-03-07T13:15:23.575Z,99173.38
2023-03-07T13:18:29.767Z,99165.97
2023-03-07T13:21:50.628Z,99167.78
2023-03-07T13:24:45.933Z,99168.47
2023-03-07T13:28:00.135Z,99174.91
2023-03-07T13:31:10.793Z,99171.94
2023-03-07T13:34:37.414Z,99167.91
2023-03-07T13:37:54.619Z,99170.31
2023-03-07T13:40:47.337Z,99149.94
2023-03-07T13:43:56.660Z,99167.69
2023-03-07T13:46:44.398Z,99167.69
2023-03-07T13:49:37.794Z,99165.22
2023-03-07T13:52:32.528Z,99141.19
2023-03-07T13:55:23.716Z,99161.53
2023-03-07T13:58:20.384Z,99179.22
2023-03-07T14:01:23.644Z,99159.88
2023-03-07T14:04:49.562Z,99167.25
2023-03-07T14:07:42.359Z,99159.78
2023-03-07T14:10:35.333Z,99163.72
2023-03-07T14:13:45.206Z,99174.06
2023-03-07T14:16:49.271Z,99171.66
2023-03-07T14:19:52.854Z,99172.59
2023-03-07T14:22:53.455Z,99168.47
2023-03-07T14:25:51.343Z,99159.88
2023-03-07T14:28:49.198Z,99161.22
2023-03-07T14:31:42.206Z,99178.56
2023-03-07T14:34:35.556Z,99174.75
2023-03-07T14:37:33.025Z,99174.56
2023-03-07T14:40:47.169Z,99176.75
2023-03-07T14:44:03.010Z,99175.38
2023-03-07T14:47:28.265Z,99181.06
2023-03-07T14:50:20.570Z,99188.72
2023-03-07T14:53:17.031Z,99172.22
2023-03-07T14:56:07.967Z,99176.97
2023-03-07T14:58:59.768Z,99180.66
2023-03-07T15:01:49.139Z,99146.72
2023-03-07T15:04:37.286Z,99170.84
2023-03-07T15:07:24.972Z,99173.09
2023-03-07T15:10:19.137Z,99145.63
2023-03-07T15:13:24.714Z,99172.31
2023-03-07T15:16:25.432Z,99164.91
2023-03-07T15:19:19.589Z,99136.97
2023-03-07T15:22:20.632Z,99171.47
2023-03-07T15:25:17.896Z,99173.13
2023-03-07T15:28:15.832Z,99180.69
2023-03-07T15:31:05.146Z,99175.63
2023-03-07T15:33:52.879Z,99188.47
2023-03-07T15:36:40.630Z,99177.44
2023-03-07T15:39:36.810Z,99174.91
2023-03-07T15:42:24.806Z,99176.53
2023-03-07T15:45:35.714Z,99168.06
2023-03-07T15:48:44.568Z,99169.41
2023-03-07T15:51:38.006Z,99178.59
2023-03-07T15:54:35.374Z,99155.91
2023-03-07T15:57:38.656Z,99180.50
2023-03-07T16:00:35.240Z,99181.34
2023-03-07T16:03:28.911Z,99172.69
2023-03-07T16:06:44.230Z,99181.03
2023-03-07T16:09:33.520Z,99189.06
2023-03-07T16:12:24.124Z,99199.41
2023-03-07T16:15:18.007Z,99181.66
2023-03-07T16:18:05.917Z,99192.41
2023-03-07T16:20:53.635Z,99200.38
2023-03-07T16:23:41.324Z,99194.13
2023-03-07T16:26:28.995Z,99197.72
2023-03-07T16:29:19.841Z,99210.81
2023-03-07T16:32:12.949Z,99209.25
2023-03-07T16:35:00.744Z,99206.50
2023-03-07T16:37:48.373Z,99212.03
2023-03-07T16:40:44.152Z,99208.84
2023-03-07T16:43:37.943Z,99184.31
2023-03-07T16:46:26.690Z,99212.88
2023-03-07T16:49:20.462Z,99218.78
2023-03-07T16:52:14.654Z,99224.75
2023-03-07T16:55:03.493Z,99210.47
2023-03-07T16:57:56.658Z,99209.69
2023-03-07T17:00:44.599Z,99243.75
2023-03-07T17:03:32.599Z,99239.81
2023-03-07T17:06:25.448Z,99244.53
2023-03-07T17:09:23.521Z,99240.56
2023-03-07T17:12:14.408Z,99217.97
2023-03-07T17:15:08.680Z,99238.16
2023-03-07T17:17:59.274Z,99229.06
2023-03-07T17:20:47.135Z,99213.16
2023-03-07T17:23:35.079Z,99235.78
2023-03-07T17:26:30.264Z,99238.50
2023-03-07T17:29:42.235Z,99250.38
2023-03-07T17:32:29.968Z,99242.44
2023-03-07T17:35:19.509Z,99254.69
2023-03-07T17:38:10.469Z,99254.75
2023-03-07T17:40:58.288Z,99251.22
2023-03-07T17:43:49.067Z,99246.44
2023-03-07T17:46:36.746Z,99241.28
2023-03-07T17:49:26.836Z,99224.63
2023-03-07T17:52:15.222Z,99260.31
2023-03-07T17:55:03.962Z,99238.94
2023-03-07T17:57:52.947Z,99265.84
2023-03-07T18:00:40.704Z,99258.31
2023-03-07T18:03:28.380Z,99237.75
2023-03-07T18:06:16.170Z,99227.41
2023-03-07T18:09:09.606Z,99259.88
2023-03-07T18:11:57.388Z,99257.09
2023-03-07T18:14:48.029Z,99233.72
2023-03-07T18:17:47.222Z,99258.28
2023-03-07T18:20:36.238Z,99265.81
2023-03-07T18:23:24.232Z,99268.19
2023-03-07T18:26:14.681Z,99264.59
2023-03-07T18:29:05.324Z,99268.09
2023-03-07T18:31:56.819Z,99278.75
2023-03-07T18:34:46.831Z,99277.44
2023-03-07T18:37:36.780Z,99297.94
2023-03-07T18:40:25.093Z,99283.72
2023-03-07T18:43:15.410Z,99283.94
2023-03-07T18:46:12.166Z,99280.56
2023-03-07T18:49:01.168Z,99276.47
2023-03-07T18:51:49.265Z,99279.53
2023-03-07T18:54:36.941Z,99244.44
2023-03-07T18:57:24.695Z,99283.66
2023-03-07T19:00:12.746Z,99261.75
2023-03-07T19:03:00.401Z,99279.50
2023-03-07T19:05:51.612Z,99290.63
2023-03-07T19:08:40.271Z,99268.13
2023-03-07T19:11:27.980Z,99270.25
2023-03-07T19:14:15.792Z,99292.34
2023-03-07T19:17:03.647Z,99294.94
2023-03-07T19:19:54.164Z,99284.03
2023-03-07T19:22:44.378Z,99294.41
2023-03-07T19:25:35.249Z,99283.63
2023-03-07T19:28:22.926Z,99291.63
2023-03-07T19:31:11.997Z,99305.88
2023-03-07T19:34:03.486Z,99297.41
2023-03-07T19:36:53.325Z,99290.44
2023-03-07T19:39:50.759Z,99300.81
2023-03-07T19:42:39.141Z,99254.84
2023-03-07T19:45:35.369Z,99293.81
2023-03-07T19:48:24.042Z,99300.34
2023-03-07T19:51:15.648Z,99301.41
2023-03-07T19:54:04.245Z,99294.47
2023-03-07T19:56:53.332Z,99280.56
2023-03-07T20:00:05.813Z,99287.09
2023-03-07T20:03:00.447Z,99295.00
2023-03-07T20:05:49.250Z,99300.78
2023-03-07T20:08:37.606Z,99302.94
2023-03-07T20:11:27.484Z,99269.34
2023-03-07T20:14:15.403Z,99280.28
2023-03-07T20:17:03.161Z,99302.78
2023-03-07T20:19:52.124Z,99282.00
2023-03-07T20:22:41.566Z,99298.38
2023-03-07T20:25:30.634Z,99306.47
2023-03-07T20:28:18.410Z,99291.41
2023-03-07T20:31:09.589Z,99300.31
2023-03-07T20:33:59.789Z,99303.69
2023-03-07T20:36:47.542Z,99299.72
2023-03-07T20:39:41.460Z,99292.34
2023-03-07T20:42:29.105Z,99292.16
2023-03-07T20:45:19.919Z,99305.47
2023-03-07T20:48:07.798Z,99274.94
2023-03-07T20:50:55.513Z,99277.06
2023-03-07T20:53:43.329Z,99295.13
2023-03-07T20:56:32.800Z,99295.13
2023-03-07T20:59:21.313Z,99307.34
2023-03-07T21:02:11.104Z,99302.22
2023-03-07T21:04:58.785Z,99283.19
2023-03-07T21:07:46.539Z,99307.47
2023-03-07T21:10:34.127Z,99312.16
2023-03-07T21:13:24.065Z,99300.34
2023-03-07T21:16:17.874Z,99295.41
2023-03-07T21:19:07.586Z,99301.53
2023-03-07T21:21:55.343Z,99301.06
2023-03-07T21:24:43.055Z,99288.25
2023-03-07T21:27:30.735Z,99296.91
2023-03-07T21:30:18.507Z,99305.59
2023-03-07T21:33:06.143Z,99304.50
2023-03-07T21:35:57.672Z,99288.56
2023-03-07T21:38:47.003Z,99303.59
2023-03-07T21:41:35.093Z,99301.13
2023-03-07T21:44:22.821Z,99306.41
2023-03-07T21:47:10.453Z,99299.56
2023-03-07T21:50:01.060Z,99297.03
2023-03-07T21:52:49.044Z,99265.59
2023-03-07T21:55:37.156Z,99286.50
2023-03-07T21:58:25.388Z,99290.13
2023-03-07T22:01:18.977Z,99296.91
2023-03-07T22:04:06.734Z,99288.13
2023-03-07T22:06:54.390Z,99290.97
2023-03-07T22:09:42.066Z,99289.53
2023-03-07T22:12:30.418Z,99238.38
2023-03-07T22:15:18.161Z,99290.13
2023-03-07T22:18:05.923Z,99284.88
2023-03-07T22:20:55.215Z,99260.66
2023-03-07T22:23:43.595Z,99259.34
2023-03-07T22:26:32.784Z,99278.75
2023-03-07T22:29:20.517Z,99264.88
2023-03-07T22:32:11.132Z,99286.75
2023-03-07T22:34:58.865Z,99299.91
2023-03-07T22:37:46.556Z,99295.13
2023-03-07T22:40:34.275Z,99289.00
2023-03-07T22:43:21.944Z,99307.56
2023-03-07T22:46:10.510Z,99292.50
2023-03-07T22:48:58.313Z,99311.91
2023-03-07T22:51:45.951Z,99304.59
2023-03-07T22:54:35.250Z,99308.50
2023-03-07T22:57:23.143Z,99317.88
2023-03-07T23:00:12.296Z,99289.47
2023-03-07T23:03:00.103Z,99303.97
2023-03-07T23:05:47.916Z,99314.69
2023-03-07T23:08:35.913Z,99275.66
2023-03-07T23:11:25.195Z,99324.72
2023-03-07T23:14:12.850Z,99325.50
2023-03-07T23:17:00.492Z,99315.69
2023-03-07T23:19:49.155Z,99317.88
2023-03-07T23:22:36.912Z,99319.59
2023-03-07T23:25:28.429Z,99315.81
2023-03-07T23:28:16.166Z,99330.91
2023-03-07T23:31:04.698Z,99317.06
2023-03-07T23:34:03.694Z,99336.72
2023-03-07T23:36:51.342Z,99305.91
2023-03-07T23:39:39.341Z,99305.09
2023-03-07T23:42:27.128Z,99310.25
2023-03-07T23:45:14.993Z,99302.13
2023-03-07T23:48:02.741Z,99330.19
2023-03-07T23:51:03.425Z,99303.16
2023-03-07T23:54:03.256Z,99346.19
2023-03-07T23:56:54.004Z,99339.78
2023-03-07T23:59:41.678Z,99343.00
